N601JG LOWI-LZIB
Flight info
| Callsign | N601JG |
|---|---|
| Flight time | 0h 45m |
| Altitude | 33000 |
| Route | RTT2Q/08 RTT DCT BARUG DCT BEGLA DCT KUVEX |
| Aircraft | CL60/M-SBDE1E2E3FGHIJ1J4J5J7M3RWXYZ/LB1V1D1 |
Departure
| Time | 2026-05-04 18:17 |
|---|---|
| Airport | Innsbruck Airport (LOWI) |
Arrival
| Time | 2026-05-04 19:02 |
|---|---|
| Airport | M. R. Štefánik Airport (LZIB) |
| Time | Latitude | Longitude | Altitude | Speed | Heading |
|---|---|---|---|---|---|
| 2026-05-04 17:44 | 47.25846 | 11.35309 | 1918 ft | 0 kts | 170° |
| 2026-05-04 18:09 | 47.25845 | 11.35309 | 1917 ft | 1 kts | 173° |
| 2026-05-04 18:09 | 47.25897 | 11.35238 | 1917 ft | 9 kts | 259° |
| 2026-05-04 18:10 | 47.25883 | 11.35123 | 1917 ft | 12 kts | 262° |
| 2026-05-04 18:10 | 47.25871 | 11.34999 | 1917 ft | 8 kts | 259° |
| 2026-05-04 18:10 | 47.25870 | 11.34989 | 1917 ft | 2 kts | 260° |
| 2026-05-04 18:10 | 47.25863 | 11.34917 | 1918 ft | 11 kts | 261° |
| 2026-05-04 18:11 | 47.25851 | 11.34808 | 1920 ft | 11 kts | 261° |
| 2026-05-04 18:11 | 47.25837 | 11.34681 | 1919 ft | 14 kts | 260° |
| 2026-05-04 18:11 | 47.25822 | 11.34541 | 1922 ft | 15 kts | 260° |
| 2026-05-04 18:11 | 47.25808 | 11.34413 | 1922 ft | 13 kts | 261° |
| 2026-05-04 18:12 | 47.25793 | 11.34276 | 1924 ft | 15 kts | 261° |
| 2026-05-04 18:12 | 47.25778 | 11.34138 | 1926 ft | 13 kts | 260° |
| 2026-05-04 18:12 | 47.25771 | 11.34013 | 1929 ft | 10 kts | 273° |
| 2026-05-04 18:12 | 47.25774 | 11.33981 | 1930 ft | 2 kts | 283° |
| 2026-05-04 18:13 | 47.25775 | 11.33979 | 1930 ft | 0 kts | 283° |
| 2026-05-04 18:14 | 47.25776 | 11.33976 | 1930 ft | 2 kts | 283° |
| 2026-05-04 18:14 | 47.25796 | 11.33905 | 1933 ft | 12 kts | 301° |
| 2026-05-04 18:14 | 47.25815 | 11.33865 | 1934 ft | 0 kts | 303° |
| 2026-05-04 18:15 | 47.25905 | 11.33680 | 1939 ft | 16 kts | 304° |
| 2026-05-04 18:15 | 47.25936 | 11.33624 | 1941 ft | 0 kts | 80° |
| 2026-05-04 18:15 | 47.25933 | 11.33597 | 1941 ft | 9 kts | 80° |
| 2026-05-04 18:16 | 47.25927 | 11.33545 | 1943 ft | 0 kts | 83° |
| 2026-05-04 18:16 | 47.25931 | 11.33582 | 1941 ft | 30 kts | 81° |
| 2026-05-04 18:17 | 47.26217 | 11.36129 | 2503 ft | 180 kts | 82° |
| 2026-05-04 18:17 | 47.26449 | 11.37938 | 3742 ft | 191 kts | 80° |
| 2026-05-04 18:17 | 47.26949 | 11.41735 | 6401 ft | 202 kts | 81° |
| 2026-05-04 18:18 | 47.27210 | 11.43675 | 7683 ft | 200 kts | 77° |
| 2026-05-04 18:18 | 47.27573 | 11.45636 | 8835 ft | 206 kts | 77° |
| 2026-05-04 18:18 | 47.27942 | 11.47619 | 10014 ft | 209 kts | 77° |
| 2026-05-04 18:18 | 47.28315 | 11.49668 | 11103 ft | 217 kts | 78° |
| 2026-05-04 18:19 | 47.29166 | 11.54547 | 11949 ft | 299 kts | 77° |
| 2026-05-04 18:19 | 47.29735 | 11.57760 | 12194 ft | 344 kts | 77° |
| 2026-05-04 18:19 | 47.30366 | 11.61301 | 12944 ft | 366 kts | 76° |
| 2026-05-04 18:20 | 47.31008 | 11.64903 | 13941 ft | 377 kts | 76° |
| 2026-05-04 18:20 | 47.31664 | 11.68592 | 14997 ft | 384 kts | 77° |
| 2026-05-04 18:20 | 47.32346 | 11.72440 | 16074 ft | 389 kts | 77° |
| 2026-05-04 18:20 | 47.33027 | 11.76297 | 17067 ft | 395 kts | 76° |
| 2026-05-04 18:21 | 47.33721 | 11.80235 | 18012 ft | 400 kts | 76° |
| 2026-05-04 18:21 | 47.34414 | 11.84183 | 18910 ft | 403 kts | 76° |
| 2026-05-04 18:21 | 47.35125 | 11.88238 | 19680 ft | 408 kts | 76° |
| 2026-05-04 18:21 | 47.35825 | 11.92248 | 20364 ft | 413 kts | 76° |
| 2026-05-04 18:22 | 47.36550 | 11.96413 | 21119 ft | 417 kts | 76° |
| 2026-05-04 18:22 | 47.37273 | 12.00576 | 21816 ft | 422 kts | 76° |
| 2026-05-04 18:22 | 47.37988 | 12.04705 | 22479 ft | 426 kts | 76° |
| 2026-05-04 18:22 | 47.38724 | 12.08964 | 23170 ft | 431 kts | 76° |
| 2026-05-04 18:23 | 47.39472 | 12.13307 | 23922 ft | 435 kts | 76° |
| 2026-05-04 18:23 | 47.40216 | 12.17639 | 24641 ft | 439 kts | 76° |
| 2026-05-04 18:23 | 47.40960 | 12.21983 | 25344 ft | 442 kts | 76° |
| 2026-05-04 18:23 | 47.41707 | 12.26355 | 25961 ft | 447 kts | 76° |
| 2026-05-04 18:24 | 47.42459 | 12.30766 | 26579 ft | 451 kts | 76° |
| 2026-05-04 18:24 | 47.43222 | 12.35258 | 27180 ft | 454 kts | 76° |
| 2026-05-04 18:24 | 47.43991 | 12.39796 | 27735 ft | 458 kts | 76° |
| 2026-05-04 18:24 | 47.44770 | 12.44399 | 28273 ft | 462 kts | 76° |
| 2026-05-04 18:25 | 47.45551 | 12.49037 | 28784 ft | 465 kts | 76° |
| 2026-05-04 18:25 | 47.46339 | 12.53722 | 29279 ft | 468 kts | 76° |
| 2026-05-04 18:25 | 47.47115 | 12.58348 | 29745 ft | 471 kts | 76° |
| 2026-05-04 18:25 | 47.47900 | 12.63044 | 30345 ft | 470 kts | 76° |
| 2026-05-04 18:26 | 47.48672 | 12.67676 | 30955 ft | 468 kts | 77° |
| 2026-05-04 18:26 | 47.49437 | 12.72273 | 31577 ft | 466 kts | 77° |
| 2026-05-04 18:26 | 47.50209 | 12.76937 | 31994 ft | 468 kts | 77° |
| 2026-05-04 18:26 | 47.50982 | 12.81613 | 32068 ft | 473 kts | 77° |
| 2026-05-04 18:27 | 47.52560 | 12.91199 | 32051 ft | 487 kts | 77° |
| 2026-05-04 18:27 | 47.54171 | 13.01045 | 32054 ft | 494 kts | 77° |
| 2026-05-04 18:28 | 47.55776 | 13.10906 | 32036 ft | 494 kts | 77° |
| 2026-05-04 18:28 | 47.57368 | 13.20751 | 32051 ft | 493 kts | 77° |
| 2026-05-04 18:29 | 47.58957 | 13.30632 | 32048 ft | 493 kts | 77° |
| 2026-05-04 18:29 | 47.60524 | 13.40435 | 32048 ft | 493 kts | 77° |
| 2026-05-04 18:30 | 47.62878 | 13.55280 | 32020 ft | 494 kts | 77° |
| 2026-05-04 18:31 | 47.64434 | 13.65162 | 32007 ft | 493 kts | 77° |
| 2026-05-04 18:31 | 47.65974 | 13.75002 | 32035 ft | 494 kts | 77° |
| 2026-05-04 18:32 | 47.67529 | 13.85005 | 32015 ft | 494 kts | 77° |
| 2026-05-04 18:32 | 47.69054 | 13.94876 | 31990 ft | 493 kts | 77° |
| 2026-05-04 18:33 | 47.70582 | 14.04819 | 31768 ft | 495 kts | 77° |
| 2026-05-04 18:33 | 47.71339 | 14.09771 | 31528 ft | 495 kts | 77° |
| 2026-05-04 18:33 | 47.72110 | 14.14831 | 31258 ft | 495 kts | 77° |
| 2026-05-04 18:33 | 47.72859 | 14.19764 | 31019 ft | 494 kts | 77° |
| 2026-05-04 18:34 | 47.73618 | 14.24776 | 30948 ft | 493 kts | 77° |
| 2026-05-04 18:34 | 47.75116 | 14.34712 | 30942 ft | 493 kts | 77° |
| 2026-05-04 18:35 | 47.76610 | 14.44693 | 30953 ft | 494 kts | 77° |
| 2026-05-04 18:35 | 47.78085 | 14.54608 | 30948 ft | 494 kts | 77° |
| 2026-05-04 18:36 | 47.79571 | 14.64656 | 30728 ft | 499 kts | 77° |
| 2026-05-04 18:36 | 47.80312 | 14.69689 | 30257 ft | 499 kts | 78° |
| 2026-05-04 18:36 | 47.81043 | 14.74672 | 29793 ft | 497 kts | 78° |
| 2026-05-04 18:36 | 47.81775 | 14.79684 | 29331 ft | 497 kts | 78° |
| 2026-05-04 18:37 | 47.82506 | 14.84701 | 28767 ft | 489 kts | 78° |
| 2026-05-04 18:37 | 47.83215 | 14.89579 | 28299 ft | 485 kts | 78° |
| 2026-05-04 18:37 | 47.83930 | 14.94526 | 27879 ft | 487 kts | 77° |
| 2026-05-04 18:37 | 47.84645 | 14.99479 | 27307 ft | 482 kts | 77° |
| 2026-05-04 18:38 | 47.85342 | 15.04323 | 26852 ft | 481 kts | 77° |
| 2026-05-04 18:38 | 47.86038 | 15.09180 | 26417 ft | 479 kts | 77° |
| 2026-05-04 18:38 | 47.86727 | 15.14008 | 25999 ft | 477 kts | 77° |
| 2026-05-04 18:38 | 47.87419 | 15.18864 | 25639 ft | 476 kts | 77° |
| 2026-05-04 18:39 | 47.88099 | 15.23655 | 25360 ft | 477 kts | 77° |
| 2026-05-04 18:39 | 47.88784 | 15.28496 | 24774 ft | 472 kts | 77° |
| 2026-05-04 18:39 | 47.89452 | 15.33272 | 24278 ft | 470 kts | 78° |
| 2026-05-04 18:39 | 47.89698 | 15.38148 | 23865 ft | 472 kts | 91° |
| 2026-05-04 18:40 | 47.89555 | 15.43015 | 23414 ft | 469 kts | 91° |
| 2026-05-04 18:40 | 47.89586 | 15.47873 | 23046 ft | 468 kts | 88° |
| 2026-05-04 18:40 | 47.89678 | 15.52745 | 22727 ft | 465 kts | 88° |
| 2026-05-04 18:40 | 47.89761 | 15.57574 | 22481 ft | 465 kts | 88° |
| 2026-05-04 18:41 | 47.89840 | 15.62387 | 22235 ft | 463 kts | 88° |
| 2026-05-04 18:41 | 47.89914 | 15.67161 | 21990 ft | 462 kts | 89° |
| 2026-05-04 18:41 | 47.89986 | 15.71983 | 21733 ft | 461 kts | 89° |
| 2026-05-04 18:41 | 47.90099 | 15.76700 | 21475 ft | 459 kts | 84° |
| 2026-05-04 18:42 | 47.90762 | 15.81327 | 21154 ft | 457 kts | 75° |
| 2026-05-04 18:42 | 47.91598 | 15.85928 | 20820 ft | 455 kts | 75° |
| 2026-05-04 18:42 | 47.92412 | 15.90490 | 20498 ft | 452 kts | 75° |
| 2026-05-04 18:42 | 47.93214 | 15.95010 | 20192 ft | 450 kts | 75° |
| 2026-05-04 18:43 | 47.94006 | 15.99499 | 19851 ft | 447 kts | 75° |
| 2026-05-04 18:43 | 47.94797 | 16.04000 | 19533 ft | 445 kts | 76° |
| 2026-05-04 18:43 | 47.95575 | 16.08442 | 19212 ft | 443 kts | 76° |
| 2026-05-04 18:43 | 47.96349 | 16.12887 | 18871 ft | 441 kts | 76° |
| 2026-05-04 18:44 | 47.97118 | 16.17314 | 18555 ft | 439 kts | 76° |
| 2026-05-04 18:44 | 47.97535 | 16.19721 | 18375 ft | 438 kts | 76° |
| 2026-05-04 18:44 | 47.98546 | 16.25577 | 17933 ft | 435 kts | 76° |
| 2026-05-04 18:44 | 47.99296 | 16.29943 | 17606 ft | 433 kts | 76° |
| 2026-05-04 18:45 | 48.00038 | 16.34276 | 17284 ft | 431 kts | 76° |
| 2026-05-04 18:45 | 48.00774 | 16.38564 | 16970 ft | 429 kts | 76° |
| 2026-05-04 18:45 | 48.01531 | 16.42902 | 16661 ft | 426 kts | 77° |
| 2026-05-04 18:45 | 48.02248 | 16.47145 | 16344 ft | 422 kts | 77° |
| 2026-05-04 18:46 | 48.02967 | 16.51408 | 16025 ft | 416 kts | 77° |
| 2026-05-04 18:46 | 48.03659 | 16.55528 | 15704 ft | 409 kts | 77° |
| 2026-05-04 18:46 | 48.04351 | 16.59655 | 15367 ft | 403 kts | 77° |
| 2026-05-04 18:46 | 48.05022 | 16.63662 | 15058 ft | 396 kts | 77° |
| 2026-05-04 18:47 | 48.05684 | 16.67629 | 14772 ft | 390 kts | 78° |
| 2026-05-04 18:47 | 48.06341 | 16.71574 | 14550 ft | 385 kts | 78° |
| 2026-05-04 18:47 | 48.06974 | 16.75386 | 14304 ft | 380 kts | 78° |
| 2026-05-04 18:47 | 48.07610 | 16.79220 | 14086 ft | 376 kts | 78° |
| 2026-05-04 18:48 | 48.08226 | 16.82947 | 13877 ft | 372 kts | 78° |
| 2026-05-04 18:48 | 48.08844 | 16.86688 | 13657 ft | 367 kts | 78° |
| 2026-05-04 18:48 | 48.09450 | 16.90371 | 13439 ft | 363 kts | 78° |
| 2026-05-04 18:48 | 48.10051 | 16.94023 | 13219 ft | 359 kts | 78° |
| 2026-05-04 18:49 | 48.10640 | 16.97616 | 12971 ft | 349 kts | 78° |
| 2026-05-04 18:49 | 48.11206 | 17.01072 | 12485 ft | 343 kts | 78° |
| 2026-05-04 18:49 | 48.11766 | 17.04502 | 12034 ft | 337 kts | 78° |
| 2026-05-04 18:49 | 48.12315 | 17.07867 | 11657 ft | 328 kts | 78° |
| 2026-05-04 18:50 | 48.12846 | 17.11125 | 11321 ft | 320 kts | 78° |
| 2026-05-04 18:50 | 48.13370 | 17.14353 | 10971 ft | 313 kts | 78° |
| 2026-05-04 18:50 | 48.13874 | 17.17459 | 10660 ft | 306 kts | 78° |
| 2026-05-04 18:50 | 48.14551 | 17.20420 | 10279 ft | 304 kts | 67° |
| 2026-05-04 18:51 | 48.15481 | 17.23255 | 9858 ft | 302 kts | 65° |
| 2026-05-04 18:51 | 48.16431 | 17.26075 | 9423 ft | 301 kts | 65° |
| 2026-05-04 18:51 | 48.17354 | 17.28820 | 9107 ft | 295 kts | 65° |
| 2026-05-04 18:51 | 48.18265 | 17.31529 | 8919 ft | 284 kts | 65° |
| 2026-05-04 18:52 | 48.19147 | 17.34150 | 8752 ft | 274 kts | 65° |
| 2026-05-04 18:52 | 48.19985 | 17.36639 | 8542 ft | 267 kts | 65° |
| 2026-05-04 18:52 | 48.20820 | 17.39110 | 8181 ft | 267 kts | 65° |
| 2026-05-04 18:52 | 48.21650 | 17.41568 | 7855 ft | 262 kts | 65° |
| 2026-05-04 18:53 | 48.22471 | 17.43996 | 7513 ft | 260 kts | 65° |
| 2026-05-04 18:53 | 48.23290 | 17.46408 | 7235 ft | 257 kts | 65° |
| 2026-05-04 18:53 | 48.24091 | 17.48762 | 7043 ft | 251 kts | 65° |
| 2026-05-04 18:53 | 48.24902 | 17.51136 | 7029 ft | 253 kts | 65° |
| 2026-05-04 18:54 | 48.25692 | 17.53446 | 6662 ft | 249 kts | 65° |
| 2026-05-04 18:54 | 48.26525 | 17.55730 | 6173 ft | 253 kts | 56° |
| 2026-05-04 18:54 | 48.27887 | 17.57383 | 5730 ft | 256 kts | 21° |
| 2026-05-04 18:54 | 48.29622 | 17.57664 | 5294 ft | 256 kts | 346° |
| 2026-05-04 18:55 | 48.31165 | 17.56488 | 4897 ft | 248 kts | 310° |
| 2026-05-04 18:55 | 48.31917 | 17.52078 | 4333 ft | 225 kts | 256° |
| 2026-05-04 18:55 | 48.31677 | 17.49782 | 4057 ft | 227 kts | 255° |
| 2026-05-04 18:56 | 48.31421 | 17.47425 | 3786 ft | 229 kts | 255° |
| 2026-05-04 18:56 | 48.31172 | 17.45097 | 3467 ft | 224 kts | 255° |
| 2026-05-04 18:56 | 48.30949 | 17.42893 | 3204 ft | 214 kts | 255° |
| 2026-05-04 18:56 | 48.30475 | 17.40927 | 2966 ft | 194 kts | 226° |
| 2026-05-04 18:57 | 48.29569 | 17.39499 | 2725 ft | 188 kts | 218° |
| 2026-05-04 18:57 | 48.28652 | 17.38158 | 2543 ft | 178 kts | 219° |
| 2026-05-04 18:57 | 48.27831 | 17.36937 | 2547 ft | 157 kts | 218° |
| 2026-05-04 18:57 | 48.27113 | 17.35875 | 2591 ft | 131 kts | 218° |
| 2026-05-04 18:58 | 48.26499 | 17.34975 | 2572 ft | 118 kts | 216° |
| 2026-05-04 18:58 | 48.25913 | 17.34137 | 2531 ft | 118 kts | 215° |
| 2026-05-04 18:58 | 48.25321 | 17.33296 | 2354 ft | 117 kts | 215° |
| 2026-05-04 18:58 | 48.24737 | 17.32457 | 2234 ft | 117 kts | 216° |
| 2026-05-04 18:59 | 48.24152 | 17.31611 | 2083 ft | 116 kts | 215° |
| 2026-05-04 18:59 | 48.23573 | 17.30772 | 1939 ft | 115 kts | 215° |
| 2026-05-04 18:59 | 48.22995 | 17.29933 | 1786 ft | 115 kts | 215° |
| 2026-05-04 18:59 | 48.22423 | 17.29103 | 1646 ft | 115 kts | 216° |
| 2026-05-04 19:00 | 48.21845 | 17.28269 | 1488 ft | 116 kts | 216° |
| 2026-05-04 19:00 | 48.21263 | 17.27416 | 1331 ft | 118 kts | 217° |
| 2026-05-04 19:00 | 48.20672 | 17.26545 | 1171 ft | 120 kts | 218° |
| 2026-05-04 19:00 | 48.20062 | 17.25664 | 1016 ft | 121 kts | 218° |
| 2026-05-04 19:01 | 48.19446 | 17.24781 | 859 ft | 123 kts | 218° |
| 2026-05-04 19:01 | 48.18821 | 17.23889 | 704 ft | 125 kts | 219° |
| 2026-05-04 19:01 | 48.18188 | 17.22976 | 534 ft | 127 kts | 220° |
| 2026-05-04 19:01 | 48.17555 | 17.22064 | 431 ft | 116 kts | 221° |
| 2026-05-04 19:02 | 48.17041 | 17.21327 | 428 ft | 81 kts | 224° |
| 2026-05-04 19:02 | 48.16910 | 17.21050 | 428 ft | 16 kts | 308° |
| 2026-05-04 19:02 | 48.16958 | 17.20977 | 427 ft | 1 kts | 314° |
| 2026-05-04 19:02 | 48.16975 | 17.20952 | 427 ft | 5 kts | 314° |
| 2026-05-04 19:03 | 48.16982 | 17.20940 | 427 ft | 0 kts | 314° |
| 2026-05-04 19:06 | 48.17007 | 17.20901 | 427 ft | 10 kts | 314° |
| 2026-05-04 19:06 | 48.16978 | 17.20782 | 428 ft | 19 kts | 226° |
| 2026-05-04 19:06 | 48.16874 | 17.20620 | 431 ft | 24 kts | 226° |
| 2026-05-04 19:07 | 48.16752 | 17.20435 | 431 ft | 26 kts | 221° |
| 2026-05-04 19:07 | 48.16608 | 17.20246 | 431 ft | 28 kts | 219° |
| 2026-05-04 19:07 | 48.16478 | 17.20081 | 431 ft | 23 kts | 222° |
| 2026-05-04 19:07 | 48.16393 | 17.19971 | 431 ft | 15 kts | 220° |
| 2026-05-04 19:08 | 48.16378 | 17.19852 | 434 ft | 11 kts | 301° |
| 2026-05-04 19:08 | 48.16421 | 17.19759 | 434 ft | 12 kts | 302° |
| 2026-05-04 19:08 | 48.16456 | 17.19677 | 434 ft | 10 kts | 302° |
| 2026-05-04 19:08 | 48.16499 | 17.19673 | 434 ft | 9 kts | 35° |
| 2026-05-04 19:09 | 48.16511 | 17.19650 | 434 ft | 0 kts | 208° |
| 2026-05-04 19:09 | 48.16509 | 17.19649 | 434 ft | 0 kts | 194° |
| 2026-05-04 19:09 | 48.16507 | 17.19647 | 434 ft | 0 kts | 218° |
| 2026-05-04 19:09 | 48.16506 | 17.19646 | 434 ft | 0 kts | 233° |
| 2026-05-04 19:10 | 48.16507 | 17.19647 | 434 ft | 0 kts | 235° |